Accueil
METAR-TAF:

METAR-TAF

Aéroports :

Aéroport international Léopold-Sédar-Senghor

Dakar, Sénégal

latitude: 14-44N, longitude: 017-30W, altitude: 27 m

Observation

Le bulletin a été fait il y a 47 minutes, à 18:00 UTC
Vent 6 kt de ouest, variant entre sud-ouest et nord-ouest
Température 28°C
Humidité 79%
Pression 1011 hPa
Visibilité 10 km ou plus
Nuages épars à une hauteur de 1300 ft

METAR: GOOY 201800Z 26006KT 220V310 9999 SCT013 28/24 Q1011

Heure: 18:47 (18:47 UTC)

Prévision

Le bulletin a été fait il y a 1 heure et 47 minutes, à 17:00 UTC
Prévision valable du 20 à 18 UTC au 21 à 24 UTC
Vent 10 kt de ouest/nord-ouest
Visibilité 10 km ou plus
Nuages épars à une hauteur de 1300 ft

TAF: GOOY 201700Z 2018/2124 30010KT 9999 SCT013

Observations et prévisions météorologiques de plus de 4000 aéroports (messages METAR et TAF).

Les stations disponibles sont représentées par des disques jaunes et rouges sur la carte.

Passer la souris dessus pour voir le nom de la station.

Cliquer dessus pour voir les observations et prévisions météorologiques.

Pour changer de carte: cliquez sur les boutons verts avec une croix noire pour zoomer, sur le bouton vert avec un tiret pour effectuer un zoom arrière, ou sur les flèches vertes pour les cartes adjacentes.


METAR-TAF: